Thursday, May 24, 2018, 1:43 PM EDT
Back to Local

KHUL, Houlton Int'l Airport

Location: Houlton, ME, United States Lat: 46.117
Local Time: 1:43 PM EDT (17:43 GMT) Lon: -67.8
Time Zone: US/Eastern Elev: 492 ft

Show me the last for .
Show Decoded

2018-05-24 12:53 METAR KHUL 241653Z AUTO 26006G16KT 10SM BKN070 14/M01 A3002 RMK AO2 SLP170
                 T01441006 =
2018-05-24 11:53 METAR KHUL 241553Z AUTO 23007KT 10SM FEW060 14/01 A3005 RMK AO2 SLP180 T01440006
                 =
2018-05-24 10:53 METAR KHUL 241453Z AUTO 00000KT 10SM CLR 13/M01 A3007 RMK AO2 SLP185 T01281011
                 58005 =
2018-05-24 09:53 METAR KHUL 241353Z AUTO 08003KT 10SM CLR 11/M04 A3008 RMK AO2 SLP189 T01111044 =
2018-05-24 08:53 METAR KHUL 241253Z AUTO VRB04KT 10SM CLR 11/M01 A3009 RMK AO2 SLP192 T01061006 =
2018-05-24 07:53 METAR KHUL 241153Z AUTO 00000KT 10SM BKN065 07/05 A3008 RMK AO2 SLP190 70009
                 I6001 T00720050 10072 21006 51019 =
2018-05-24 07:08 METAR KHUL 241108Z AUTO 03003KT 10SM FEW002 04/03 A3008 RMK AO2 T00390033 $ =
2018-05-24 06:53 METAR KHUL 241053Z AUTO 00000KT 10SM CLR 03/03 A3007 RMK AO2 SLP188 T00330028 $
                 =
2018-05-24 06:24 METAR KHUL 241024Z AUTO 00000KT 10SM SCT001 02/01 A3006 RMK AO2 T00170011 $ =
2018-05-24 06:16 METAR KHUL 241016Z AUTO 00000KT 4SM BR BKN001 01/01 A3006 RMK AO2 T00110006 $ =
2018-05-24 06:06 METAR KHUL 241006Z AUTO 00000KT 1 1/4SM BR BKN001 BKN075 00/00 A3005 RMK AO2
                 T00000000 $ =
2018-05-24 06:02 METAR KHUL 241002Z AUTO 00000KT 10SM BKN001 BKN070 00/00 A3005 RMK AO2 T00000000
                 $ =
2018-05-24 05:53 METAR KHUL 240953Z AUTO 00000KT 10SM SCT001 BKN070 00/00 A3005 RMK AO2 SLP180
                 I1000 T00000000 $ =
2018-05-24 05:11 METAR KHUL 240911Z AUTO 22003KT 10SM FEW002 BKN070 M01/M01 A3003 RMK AO2
                 T10061006 $ =
2018-05-24 05:01 METAR KHUL 240901Z AUTO 00000KT 2SM BR FEW002 BKN070 M01/M01 A3002 RMK AO2
                 T10061006 $ =
2018-05-24 04:56 METAR KHUL 240856Z AUTO 00000KT 1 3/4SM BR SCT070 00/M01 A3002 RMK AO2 T00001006
                 $ =
2018-05-24 04:53 METAR KHUL 240853Z AUTO 00000KT 3SM BR FEW070 00/M01 A3002 RMK AO2 SLP171 I3001
                 T00001006 53010 $ =
2018-05-24 03:53 METAR KHUL 240753Z AUTO 00000KT 10SM CLR 00/M01 A3001 RMK AO2 SLP165 T00001006 $
                 =
2018-05-24 03:28 METAR KHUL 240728Z AUTO 00000KT 5SM BR CLR 00/M01 A3000 RMK AO2 T00001006 $ =
2018-05-24 03:21 METAR KHUL 240721Z AUTO 00000KT 2 1/2SM BR CLR 00/M01 A3000 RMK AO2 VIS 1V5
                 T00001006 $ =
2018-05-24 03:09 METAR KHUL 240709Z AUTO 00000KT 10SM SCT001 M01/M01 A3000 RMK AO2 T10061006 $ =
2018-05-24 03:00 METAR KHUL 240700Z AUTO 00000KT 3SM BR BKN001 00/M01 A3000 RMK AO2 T00001006 $ =
2018-05-24 02:58 METAR KHUL 240658Z AUTO 00000KT 1 3/4SM BR BKN001 00/M01 A3000 RMK AO2 VIS 3/4V5
                 T00001006 $ =
2018-05-24 02:53 METAR KHUL 240653Z AUTO 00000KT 1/2SM FG VV001 00/M01 A3000 RMK AO2 SLP163 I1001
                 T00001006 $ =
2018-05-24 02:05 METAR KHUL 240605Z AUTO 00000KT 3/4SM BR OVC001 M01/M01 A2999 RMK AO2 T10061006
                 =
2018-05-24 01:59 METAR KHUL 240559Z AUTO 00000KT 1 3/4SM BR OVC001 01/00 A2999 RMK AO2 T00060000
                 =
2018-05-24 01:53 METAR KHUL 240553Z AUTO 00000KT 5SM BR BKN001 00/M01 A2999 RMK AO2 SLP161 I1000
                 I6000 T00001006 10072 21006 55001 =
2018-05-24 01:45 METAR KHUL 240545Z AUTO 18003KT 4SM BR BKN001 00/M01 A2999 RMK AO2 I1000
                 T00001006 =
2018-05-24 01:36 METAR KHUL 240536Z AUTO 19003KT 10SM SCT001 M01/M01 A2999 RMK AO2 I1000
                 T10061006 =
2018-05-24 00:53 METAR KHUL 240453Z AUTO 17003KT 10SM CLR M01/M01 A2998 RMK AO2 SLP158 T10061011
                 401941006 =
2018-05-23 23:53 METAR KHUL 240353Z AUTO 00000KT 10SM CLR 01/00 A2999 RMK AO2 SLP160 T00060000 =
2018-05-23 22:53 METAR KHUL 240253Z AUTO 00000KT 10SM CLR 02/02 A3000 RMK AO2 SLP161 T00220017
                 50006 =
2018-05-23 21:53 METAR KHUL 240153Z AUTO 00000KT 10SM CLR 04/03 A3000 RMK AO2 SLP161 T00390028 =
2018-05-23 20:53 METAR KHUL 240053Z AUTO 06003KT 10SM FEW060 06/04 A3000 RMK AO2 SLP160 T00560039
                 =
2018-05-23 19:53 METAR KHUL 232353Z AUTO 02004KT 10SM FEW041 SCT055 07/04 A2998 RMK AO2 SLP155
                 T00720039 10133 20072 53027 =
2018-05-23 18:53 METAR KHUL 232253Z AUTO 02014KT 10SM BKN050 10/04 A2995 RMK AO2 SLP146 T01000039
                 =
2018-05-23 17:53 METAR KHUL 232153Z AUTO 36015G21KT 10SM SCT037 11/05 A2992 RMK AO2 SLP135
                 T01060050 =
2018-05-23 16:53 METAR KHUL 232053Z AUTO 35012G20KT 10SM FEW021 BKN030 OVC060 11/06 A2990 RMK AO2
                 SLP127 T01110061 53021 =
2018-05-23 15:53 METAR KHUL 231953Z AUTO 35013G21KT 10SM FEW019 FEW033 BKN049 13/08 A2987 RMK AO2
                 SLP115 T01280083 =
2018-05-23 15:42 METAR KHUL 231942Z AUTO 36014KT 10SM FEW019 SCT026 BKN045 12/08 A2986 RMK AO2
                 T01170078 =
2018-05-23 14:53 METAR KHUL 231853Z AUTO 35008KT 10SM FEW012 BKN020 OVC037 12/09 A2985 RMK AO2
                 SLP109 T01170089 =
2018-05-23 14:44 METAR KHUL 231844Z AUTO 01010KT 10SM SCT012 BKN019 OVC029 11/09 A2985 RMK AO2
                 T01110089 =
2018-05-23 14:23 METAR KHUL 231823Z AUTO 01007KT 10SM BKN010 BKN014 OVC021 11/09 A2985 RMK AO2
                 CIG 006V012 T01110089 =
2018-05-23 14:05 METAR KHUL 231805Z AUTO 34007KT 10SM BKN008 BKN013 OVC020 11/09 A2985 RMK AO2
                 CIG 006V010 T01060089 =
2018-05-23 13:53 METAR KHUL 231753Z AUTO 35006KT 10SM BKN010 BKN060 OVC075 10/09 A2984 RMK AO2
                 RAB04E49 SLP105 P0002 60009 T01000089 10194 20100 58003 =

Support USWX by starting your Amazon purchase here.